Time;durP1;ratioP1;P1;durP2;ratioP2;P2;SDS_P1;SDS_P2;PMS_P1;PMS_P2;Temp;Humidity;BMP_temperature;BMP_pressure;BME280_temperature;BME280_humidity;BME280_pressure;Samples;Min_cycle;Max_cycle;Signal;HPM_P1;HPM_P2
2021/07/23 00:01:59;;;;;;;6.53;5.80;;;;;;;16.55;75.19;96844.95;1765413;80;21283;-78
2021/07/23 00:04:25;;;;;;;8.60;6.97;;;;;;;16.53;74.96;96846.98;1770104;79;21236;-77
2021/07/23 00:06:51;;;;;;;7.78;5.08;;;;;;;16.50;74.73;96844.27;1762292;79;20923;-78
2021/07/23 00:09:17;;;;;;;7.47;6.15;;;;;;;16.48;74.62;96848.92;1763479;80;21020;-78
2021/07/23 00:11:43;;;;;;;6.85;5.22;;;;;;;16.48;74.46;96846.30;1746545;81;21053;-78
2021/07/23 00:14:09;;;;;;;6.80;5.37;;;;;;;16.50;74.28;96849.52;1745093;82;21363;-78
2021/07/23 00:16:36;;;;;;;6.50;5.62;;;;;;;16.51;74.24;96841.14;1747544;82;20978;-78
2021/07/23 00:19:01;;;;;;;9.20;5.80;;;;;;;16.53;74.24;96840.93;1763372;79;20925;-78
2021/07/23 00:21:27;;;;;;;7.10;5.67;;;;;;;16.50;73.95;96838.22;1753874;79;21254;-77
2021/07/23 00:23:53;;;;;;;6.55;5.30;;;;;;;16.48;74.03;96841.05;1754224;79;20943;-77
2021/07/23 00:26:19;;;;;;;6.72;5.20;;;;;;;16.48;74.06;96841.05;1759661;79;20898;-77
2021/07/23 00:28:45;;;;;;;7.75;4.95;;;;;;;16.48;74.04;96838.44;1756398;79;20961;-77
2021/07/23 00:31:12;;;;;;;6.17;5.53;;;;;;;16.51;73.99;96843.77;1757717;79;21013;-77
2021/07/23 00:33:37;;;;;;;8.05;6.15;;;;;;;16.52;73.96;96837.50;1753240;79;20936;-77
2021/07/23 00:36:04;;;;;;;6.20;5.35;;;;;;;16.50;73.90;96840.84;1761345;79;20981;-77
2021/07/23 00:38:30;;;;;;;8.40;5.50;;;;;;;16.51;73.98;96839.83;1758587;79;20948;-78
2021/07/23 00:40:56;;;;;;;6.80;5.25;;;;;;;16.48;73.75;96838.44;1765328;79;20999;-77
2021/07/23 00:43:21;;;;;;;7.75;5.20;;;;;;;16.45;73.52;96840.67;1763313;79;20963;-77
2021/07/23 00:45:47;;;;;;;6.47;4.62;;;;;;;16.43;73.60;96837.42;1768035;79;20967;-77
2021/07/23 00:48:14;;;;;;;7.90;5.70;;;;;;;16.45;73.89;96836.73;1755089;79;21000;-77
2021/07/23 00:50:39;;;;;;;7.67;5.95;;;;;;;16.47;73.73;96825.53;1756517;79;20995;-77
2021/07/23 00:53:05;;;;;;;6.50;4.92;;;;;;;16.46;73.48;96833.09;1760361;80;21018;-77
2021/07/23 00:55:31;;;;;;;6.62;5.62;;;;;;;16.45;73.63;96832.80;1769633;79;21031;-77
2021/07/23 00:57:57;;;;;;;7.87;5.37;;;;;;;16.43;73.81;96824.31;1746080;80;21447;-77
2021/07/23 01:00:24;;;;;;;7.83;6.10;;;;;;;16.42;73.73;96828.75;1773974;80;20935;-77
2021/07/23 01:02:52;;;;;;;6.20;4.87;;;;;;;16.41;73.61;96829.77;1746156;80;21050;-77
2021/07/23 01:05:18;;;;;;;6.87;4.83;;;;;;;16.41;73.60;96827.14;1740648;80;21860;-77
2021/07/23 01:07:46;;;;;;;6.53;5.35;;;;;;;16.42;73.25;96830.06;1771787;80;20975;-77
2021/07/23 01:10:11;;;;;;;7.20;5.37;;;;;;;16.41;73.23;96824.52;1745875;80;21313;-77
2021/07/23 01:12:37;;;;;;;6.08;4.97;;;;;;;16.41;73.28;96828.45;1706747;84;21093;-77
2021/07/23 01:15:05;;;;;;;10.95;6.12;;;;;;;16.42;73.28;96830.56;1727054;81;21254;-77
2021/07/23 01:17:31;;;;;;;6.03;4.80;;;;;;;16.39;73.39;96820.50;1723557;81;21310;-77
2021/07/23 01:20:13;;;;;;;6.50;5.83;;;;;;;16.38;73.75;96814.95;1727792;81;20985;-77
2021/07/23 01:22:38;;;;;;;;;;;;;;;16.39;73.72;96817.88;1725263;81;21026;-77
2021/07/23 01:25:04;;;;;;;7.40;6.28;;;;;;;16.40;73.61;96812.92;1728407;81;20429;-77
2021/07/23 01:27:33;;;;;;;6.60;5.28;;;;;;;16.39;73.79;96815.25;1701899;81;20891;-77
2021/07/23 01:30:07;;;;;;;5.92;5.30;;;;;;;16.38;73.78;96813.64;1726532;81;20999;-77
2021/07/23 01:32:34;;;;;;;7.08;6.12;;;;;;;16.39;73.74;96820.50;1749477;80;21044;-77
2021/07/23 01:35:00;;;;;;;7.00;5.22;;;;;;;16.42;73.81;96817.45;1754384;80;20997;-77
2021/07/23 01:37:25;;;;;;;5.37;4.87;;;;;;;16.42;73.82;96816.95;1754082;80;20913;-77
2021/07/23 01:39:52;;;;;;;6.87;4.65;;;;;;;16.45;73.77;96818.38;1760122;80;20897;-77
2021/07/23 01:42:17;;;;;;;7.65;5.90;;;;;;;16.47;73.69;96814.53;1719154;81;21223;-77
2021/07/23 01:44:43;;;;;;;7.05;5.05;;;;;;;16.47;73.60;96815.03;1725691;81;20947;-77
2021/07/23 01:47:09;;;;;;;6.15;5.17;;;;;;;16.48;73.64;96814.83;1752444;80;21264;-77
2021/07/23 01:49:34;;;;;;;8.38;5.87;;;;;;;16.49;73.59;96815.63;1743815;80;20902;-77
2021/07/23 01:52:00;;;;;;;7.10;5.67;;;;;;;16.48;73.48;96810.89;1735764;81;21214;-77
2021/07/23 01:54:26;;;;;;;5.90;5.17;;;;;;;16.47;73.62;96805.34;1728115;81;20947;-77
2021/07/23 01:56:52;;;;;;;6.17;5.20;;;;;;;16.47;73.73;96808.48;1712612;82;20981;-76
2021/07/23 01:59:17;;;;;;;6.33;5.08;;;;;;;16.47;73.56;96805.86;1730562;81;20963;-76
2021/07/23 02:01:43;;;;;;;7.97;5.55;;;;;;;16.47;73.22;96809.79;1749179;80;21041;-76
2021/07/23 02:04:09;;;;;;;5.45;4.92;;;;;;;16.45;73.29;96802.64;1757816;80;21124;-77
2021/07/23 02:06:35;;;;;;;8.43;5.45;;;;;;;16.43;73.47;96798.91;1725821;81;21018;-76
2021/07/23 02:09:01;;;;;;;5.65;5.05;;;;;;;16.41;73.40;96801.42;1725655;81;21042;-77
2021/07/23 02:11:26;;;;;;;5.87;5.28;;;;;;;16.38;73.36;96792.16;1760802;79;21023;-76
2021/07/23 02:13:52;;;;;;;5.28;4.78;;;;;;;16.36;73.25;96797.31;1743975;81;20997;-76
2021/07/23 02:16:18;;;;;;;7.05;5.45;;;;;;;16.37;73.34;96802.86;1759265;80;21454;-76
2021/07/23 02:18:44;;;;;;;6.05;5.22;;;;;;;16.37;73.14;96801.04;1763254;79;21272;-76
2021/07/23 02:21:10;;;;;;;6.08;5.47;;;;;;;16.37;72.99;96798.92;1754537;80;20945;-76
2021/07/23 02:23:35;;;;;;;6.08;5.45;;;;;;;16.35;73.13;96799.64;1752126;80;20896;-76
2021/07/23 02:26:01;;;;;;;6.37;5.25;;;;;;;16.35;73.30;96793.08;1749632;81;20895;-76
2021/07/23 02:28:27;;;;;;;6.33;5.67;;;;;;;16.33;73.17;96790.67;1753877;81;21340;-78
2021/07/23 02:30:53;;;;;;;6.72;4.78;;;;;;;16.31;72.96;96791.90;1750272;81;21021;-77
2021/07/23 02:33:18;;;;;;;5.42;4.87;;;;;;;16.31;73.13;96791.90;1753512;80;21428;-78
2021/07/23 02:35:44;;;;;;;6.03;5.12;;;;;;;16.29;73.07;96793.42;1764597;80;21357;-78
2021/07/23 02:38:10;;;;;;;8.75;5.75;;;;;;;16.30;73.08;96791.09;1752022;80;21005;-78
2021/07/23 02:40:36;;;;;;;7.67;5.62;;;;;;;16.31;73.27;96791.90;1763739;79;21120;-78
2021/07/23 02:43:02;;;;;;;6.22;5.42;;;;;;;16.33;73.17;96792.49;1754042;81;21029;-76
2021/07/23 02:45:28;;;;;;;6.35;5.70;;;;;;;16.31;73.29;96789.27;1756750;81;21056;-77
2021/07/23 02:47:54;;;;;;;6.33;5.55;;;;;;;16.32;73.32;96790.88;1755927;81;20981;-76
2021/07/23 02:50:20;;;;;;;6.70;5.00;;;;;;;16.30;73.36;96795.03;1757301;81;21001;-76
2021/07/23 02:52:46;;;;;;;5.05;4.55;;;;;;;16.29;73.40;96790.80;1750711;81;20945;-77
2021/07/23 02:55:12;;;;;;;6.08;5.12;;;;;;;16.28;73.32;96789.19;1752990;81;20934;-76
2021/07/23 02:57:38;;;;;;;7.60;5.70;;;;;;;16.28;73.32;96788.38;1755008;81;20988;-77
2021/07/23 03:00:05;;;;;;;6.97;5.78;;;;;;;16.28;73.58;96786.56;1759015;81;21309;-77
2021/07/23 03:02:31;;;;;;;6.47;5.62;;;;;;;16.30;73.67;96782.42;1739412;81;20980;-77
2021/07/23 03:04:56;;;;;;;7.80;5.95;;;;;;;16.28;73.55;96780.02;1756199;81;20937;-76
2021/07/23 03:07:22;;;;;;;8.40;5.67;;;;;;;16.27;73.65;96779.72;1752540;81;20907;-77
2021/07/23 03:09:48;;;;;;;6.95;5.45;;;;;;;16.28;73.70;96780.52;1755934;80;20888;-77
2021/07/23 03:12:14;;;;;;;5.65;4.80;;;;;;;16.28;73.66;96776.08;1724000;82;20927;-77
2021/07/23 03:14:40;;;;;;;7.30;5.62;;;;;;;16.26;73.84;96777.27;1727191;82;20954;-76
2021/07/23 03:17:08;;;;;;;5.97;5.37;;;;;;;16.27;73.74;96784.96;1747764;80;21267;-77
2021/07/23 03:19:34;;;;;;;6.90;5.35;;;;;;;16.28;73.68;96780.52;1751658;80;20939;-77
2021/07/23 03:21:59;;;;;;;6.53;5.78;;;;;;;16.27;73.72;96783.65;1759270;80;20970;-76
2021/07/23 03:24:25;;;;;;;6.15;5.55;;;;;;;16.26;73.87;96782.01;1722857;82;20987;-76
2021/07/23 03:26:51;;;;;;;7.60;4.87;;;;;;;16.27;74.15;96782.81;1753856;80;21018;-76
2021/07/23 03:29:17;;;;;;;5.75;5.15;;;;;;;16.26;74.29;96774.66;1708729;82;20892;-76
2021/07/23 03:31:42;;;;;;;6.03;5.42;;;;;;;16.26;74.35;96772.83;1710579;82;20994;-77
2021/07/23 03:34:09;;;;;;;8.55;6.78;;;;;;;16.27;74.22;96776.26;1728299;82;21050;-76
2021/07/23 03:36:35;;;;;;;7.15;5.47;;;;;;;16.28;74.27;96781.83;1731331;82;21329;-76
2021/07/23 03:39:01;;;;;;;6.12;5.33;;;;;;;16.26;74.39;96778.58;1715010;82;21317;-76
2021/07/23 03:41:26;;;;;;;6.78;5.33;;;;;;;16.24;74.46;96777.48;1735868;82;21047;-76
2021/07/23 03:43:52;;;;;;;6.08;5.17;;;;;;;16.19;74.39;96768.94;1729695;82;21034;-76
2021/07/23 03:46:18;;;;;;;6.60;5.17;;;;;;;16.16;74.50;96773.80;1744253;81;21002;-76
2021/07/23 03:48:44;;;;;;;6.75;5.35;;;;;;;16.18;74.48;96771.77;1733720;81;21406;-76
2021/07/23 03:51:10;;;;;;;7.08;5.80;;;;;;;16.19;74.28;96768.13;1732652;81;20960;-76
2021/07/23 03:53:35;;;;;;;6.37;5.70;;;;;;;16.19;74.36;96767.63;1730610;81;20908;-76
2021/07/23 03:56:07;;;;;;;7.80;5.22;;;;;;;16.21;74.32;96766.11;1744064;81;21040;-76
2021/07/23 03:58:33;;;;;;;7.40;5.40;;;;;;;16.20;74.34;96767.92;1734098;81;20936;-76
2021/07/23 04:01:02;;;;;;;6.72;5.30;;;;;;;16.19;74.56;96768.94;1741063;81;20917;-76
2021/07/23 04:03:28;;;;;;;6.80;4.90;;;;;;;16.25;74.53;96767.80;1738946;81;21039;-76
2021/07/23 04:05:54;;;;;;;7.67;5.55;;;;;;;16.29;74.44;96770.33;1728870;81;20899;-76
2021/07/23 04:08:19;;;;;;;5.97;5.30;;;;;;;16.31;74.38;96764.36;1731083;81;20939;-76
2021/07/23 04:10:45;;;;;;;7.12;5.80;;;;;;;16.32;74.39;96768.09;1746954;81;20937;-76
2021/07/23 04:13:12;;;;;;;7.00;5.87;;;;;;;16.35;74.51;96773.42;1760882;80;21015;-77
2021/07/23 04:15:37;;;;;;;6.97;5.55;;;;;;;16.36;74.62;96766.65;1773782;80;21300;-77
2021/07/23 04:18:03;;;;;;;6.45;5.22;;;;;;;16.39;74.75;96770.67;1744702;82;20937;-76
2021/07/23 04:20:30;;;;;;;6.50;4.87;;;;;;;16.46;74.86;96775.40;1732139;80;20988;-76
2021/07/23 04:22:56;;;;;;;7.42;5.47;;;;;;;16.55;74.99;96774.12;1769527;80;21342;-76
2021/07/23 04:25:22;;;;;;;6.33;5.60;;;;;;;16.64;74.99;96775.50;1766132;79;21289;-77
2021/07/23 04:27:47;;;;;;;6.12;5.53;;;;;;;16.69;74.81;96769.14;1767271;79;20971;-77
2021/07/23 04:30:16;;;;;;;6.35;5.55;;;;;;;16.74;74.88;96771.13;1757659;79;20979;-78
2021/07/23 04:32:42;;;;;;;9.35;5.83;;;;;;;16.76;74.99;96775.17;1751600;79;21317;-77
2021/07/23 04:35:10;;;;;;;7.60;5.60;;;;;;;16.76;74.96;96772.55;1751384;79;21060;-77
2021/07/23 04:37:35;;;;;;;6.03;5.20;;;;;;;16.80;74.96;96776.35;1762888;79;21202;-77
2021/07/23 04:40:06;;;;;;;6.37;5.62;;;;;;;16.88;75.08;96767.41;1765297;79;20964;-77
2021/07/23 04:42:30;;;;;;;7.15;5.85;;;;;;;16.94;75.16;96771.03;1762169;79;20999;-77
2021/07/23 04:44:56;;;;;;;7.35;6.58;;;;;;;16.96;75.25;96767.68;1740802;81;20909;-78
2021/07/23 04:47:21;;;;;;;8.05;6.45;;;;;;;16.99;75.46;96769.37;1746520;80;20959;-77
2021/07/23 04:49:47;;;;;;;6.15;5.55;;;;;;;17.01;75.34;96764.70;1754616;79;21746;-77
2021/07/23 04:52:13;;;;;;;7.78;5.85;;;;;;;17.04;75.32;96765.58;1773131;79;20994;-77
2021/07/23 04:54:38;;;;;;;6.33;5.12;;;;;;;17.09;75.44;96766.28;1756651;79;20935;-77
2021/07/23 04:57:04;;;;;;;7.05;6.12;;;;;;;17.14;75.52;96763.81;1760226;79;20992;-78
2021/07/23 04:59:31;;;;;;;7.67;6.87;;;;;;;17.17;75.39;96758.12;1760742;79;21060;-78
2021/07/23 05:01:57;;;;;;;8.10;6.78;;;;;;;17.23;75.57;96763.83;1757888;79;21269;-77
2021/07/23 05:04:22;;;;;;;7.17;6.35;;;;;;;17.31;75.77;96753.58;1763993;79;21038;-78
2021/07/23 05:06:48;;;;;;;7.80;6.47;;;;;;;17.35;75.72;96753.44;1770728;79;21027;-77
2021/07/23 05:09:14;;;;;;;6.78;5.70;;;;;;;17.39;75.69;96754.61;1753349;80;21364;-78
2021/07/23 05:11:40;;;;;;;6.33;5.35;;;;;;;17.44;75.74;96755.30;1726327;81;21072;-77
2021/07/23 05:14:07;;;;;;;7.58;6.10;;;;;;;17.51;76.09;96753.40;1760607;79;20988;-77
2021/07/23 05:16:34;;;;;;;8.15;6.53;;;;;;;17.66;76.13;96745.98;1767329;79;21304;-76
2021/07/23 05:19:00;;;;;;;6.62;5.95;;;;;;;17.77;75.99;96746.62;1757529;79;20952;-78
2021/07/23 05:21:26;;;;;;;8.80;7.37;;;;;;;17.84;75.65;96748.66;1760888;79;21246;-78
2021/07/23 05:23:51;;;;;;;9.78;7.58;;;;;;;17.86;75.54;96747.12;1764415;79;20998;-78
2021/07/23 05:26:17;;;;;;;10.78;8.10;;;;;;;17.90;75.25;96753.06;1765867;80;20877;-78
2021/07/23 05:28:43;;;;;;;11.22;8.45;;;;;;;17.96;74.81;96757.95;1771547;79;20990;-78
2021/07/23 05:31:08;;;;;;;11.15;8.80;;;;;;;18.03;74.48;96758.66;1758606;79;20917;-78
2021/07/23 05:33:34;;;;;;;12.15;9.63;;;;;;;18.12;74.34;96756.05;1766249;79;21003;-78
2021/07/23 05:36:00;;;;;;;9.58;8.35;;;;;;;18.20;73.96;96759.67;1770970;79;20961;-78
2021/07/23 05:38:26;;;;;;;10.58;9.08;;;;;;;18.26;74.64;96755.38;1765081;79;20973;-79
2021/07/23 05:40:51;;;;;;;9.05;7.30;;;;;;;18.33;74.64;96755.28;1762279;79;21023;-78
2021/07/23 05:43:17;;;;;;;10.00;8.15;;;;;;;18.35;74.47;96756.67;1764961;79;20979;-78
2021/07/23 05:45:43;;;;;;;10.30;8.03;;;;;;;18.36;73.10;96758.27;1763460;79;21308;-78
2021/07/23 05:48:08;;;;;;;8.25;7.35;;;;;;;18.38;73.97;96756.73;1750951;79;21000;-78
2021/07/23 05:50:34;;;;;;;10.38;8.53;;;;;;;18.40;74.01;96754.71;1763115;79;20953;-78
2021/07/23 05:53:00;;;;;;;8.43;7.55;;;;;;;18.38;73.77;96763.31;1766758;79;21226;-78
2021/07/23 05:55:26;;;;;;;12.37;8.88;;;;;;;18.38;73.84;96760.68;1771895;79;20896;-78
2021/07/23 05:57:56;;;;;;;12.70;8.90;;;;;;;18.38;73.49;96760.68;1770441;79;20923;-78
2021/07/23 06:00:26;;;;;;;16.15;10.72;;;;;;;18.41;73.51;96761.58;1761977;79;20921;-78
2021/07/23 06:02:54;;;;;;;14.13;10.95;;;;;;;18.43;73.10;96760.84;1767072;79;21088;-77
2021/07/23 06:05:20;;;;;;;14.15;10.72;;;;;;;18.38;72.59;96756.22;1768738;79;20955;-79
2021/07/23 06:07:46;;;;;;;9.70;8.15;;;;;;;18.35;72.25;96756.67;1739965;81;20925;-79
2021/07/23 06:10:12;;;;;;;13.68;11.33;;;;;;;18.37;73.02;96765.14;1771780;80;20987;-79
2021/07/23 06:12:39;;;;;;;13.93;11.33;;;;;;;18.39;73.30;96763.63;1776972;80;21278;-79
2021/07/23 06:15:06;;;;;;;16.15;12.05;;;;;;;18.41;73.05;96763.70;1770394;80;20975;-79
2021/07/23 06:17:32;;;;;;;11.65;9.48;;;;;;;18.43;72.81;96759.52;1740541;81;20922;-80
2021/07/23 06:19:58;;;;;;;14.18;12.63;;;;;;;18.46;73.24;96762.51;1750427;81;20935;-79
2021/07/23 06:22:24;;;;;;;13.28;10.43;;;;;;;18.48;72.66;96758.34;1738097;81;20914;-79
2021/07/23 06:24:52;;;;;;;12.63;10.63;;;;;;;18.52;72.70;96760.30;1759745;80;20983;-79
2021/07/23 06:27:19;;;;;;;15.08;10.45;;;;;;;18.57;73.04;96763.08;1738892;81;21400;-79
2021/07/23 06:29:45;;;;;;;16.45;12.50;;;;;;;18.64;72.69;96766.96;1739417;81;21004;-79
2021/07/23 06:32:10;;;;;;;12.45;11.15;;;;;;;18.68;72.12;96759.41;1758248;80;20889;-79
2021/07/23 06:34:36;;;;;;;12.80;9.48;;;;;;;18.73;72.75;96760.89;1730249;81;21929;-78
2021/07/23 06:37:03;;;;;;;17.90;12.25;;;;;;;18.81;73.03;96761.87;1731076;82;20935;-79
2021/07/23 06:39:30;;;;;;;16.30;12.00;;;;;;;18.87;72.02;96759.64;1732384;81;21926;-79
2021/07/23 06:41:56;;;;;;;13.08;11.73;;;;;;;18.93;71.35;96765.35;1745057;81;20923;-78
2021/07/23 06:44:22;;;;;;;15.60;12.73;;;;;;;18.85;71.05;96757.75;1775100;79;20908;-79
2021/07/23 06:46:48;;;;;;;14.63;11.35;;;;;;;18.86;71.63;96760.67;1769052;79;20942;-79
2021/07/23 06:49:14;;;;;;;14.10;10.40;;;;;;;18.93;71.32;96762.72;1734871;81;20936;-78
2021/07/23 06:51:39;;;;;;;14.58;11.50;;;;;;;19.01;71.17;96760.27;1755274;80;20930;-79
2021/07/23 06:54:05;;;;;;;16.07;11.05;;;;;;;19.03;70.84;96759.52;1763393;80;21268;-79
2021/07/23 06:56:31;;;;;;;15.98;12.07;;;;;;;19.00;70.64;96756.02;1760488;80;20970;-78
2021/07/23 06:58:56;;;;;;;16.15;11.83;;;;;;;19.05;70.48;96755.66;1773317;79;20896;-79
2021/07/23 07:01:22;;;;;;;14.90;12.45;;;;;;;19.13;71.04;96750.56;1768984;79;21249;-79
2021/07/23 07:03:48;;;;;;;14.63;10.90;;;;;;;19.28;71.28;96747.49;1768622;79;20999;-79
2021/07/23 07:06:13;;;;;;;14.78;11.28;;;;;;;19.37;71.19;96748.78;1767727;79;20923;-79
2021/07/23 07:08:39;;;;;;;10.98;9.70;;;;;;;19.44;70.83;96742.87;1769353;79;21284;-78
2021/07/23 07:11:05;;;;;;;13.30;10.15;;;;;;;19.54;71.67;96745.78;1765175;79;20995;-78
2021/07/23 07:13:31;;;;;;;15.00;12.10;;;;;;;19.74;71.04;96741.47;1744516;79;20963;-78
2021/07/23 07:15:58;;;;;;;13.53;10.63;;;;;;;19.89;70.64;96738.36;1732714;81;20994;-79
2021/07/23 07:18:24;;;;;;;12.88;10.88;;;;;;;19.92;70.39;96738.69;1736859;81;20928;-79
2021/07/23 07:20:49;;;;;;;15.38;10.48;;;;;;;19.93;70.84;96738.17;1724221;81;20987;-78
2021/07/23 07:23:15;;;;;;;11.18;9.53;;;;;;;20.01;70.43;96736.48;1738150;81;21269;-79
2021/07/23 07:25:41;;;;;;;15.18;10.48;;;;;;;20.15;69.90;96740.98;1735839;81;20943;-79
2021/07/23 07:28:06;;;;;;;10.35;9.25;;;;;;;20.25;69.28;96738.05;1739046;81;20928;-80
2021/07/23 07:30:32;;;;;;;12.07;8.83;;;;;;;20.37;69.76;96742.77;1745454;81;20957;-79
2021/07/23 07:32:58;;;;;;;13.22;9.53;;;;;;;20.51;70.15;96739.89;1740876;81;20951;-78
2021/07/23 07:35:23;;;;;;;12.75;9.48;;;;;;;20.57;69.57;96738.94;1729975;81;20932;-78
2021/07/23 07:37:49;;;;;;;11.80;10.58;;;;;;;20.58;68.96;96732.63;1680558;83;20942;-79
2021/07/23 07:40:15;;;;;;;12.13;8.35;;;;;;;20.57;68.88;96733.66;1709698;82;21205;-79
2021/07/23 07:42:41;;;;;;;13.00;9.95;;;;;;;20.59;69.47;96730.27;1745281;81;20914;-79
2021/07/23 07:45:08;;;;;;;11.03;9.23;;;;;;;20.57;68.57;96727.86;1740075;81;21209;-78
2021/07/23 07:47:33;;;;;;;9.43;8.00;;;;;;;20.60;67.84;96735.82;1749984;81;21002;-78
2021/07/23 07:49:59;;;;;;;9.63;7.50;;;;;;;20.63;67.24;96734.02;1734588;81;20951;-78
2021/07/23 07:52:25;;;;;;;10.13;7.90;;;;;;;20.59;67.46;96737.66;1730186;81;20954;-78
2021/07/23 07:54:50;;;;;;;9.20;7.60;;;;;;;20.55;67.79;96743.14;1729201;81;20975;-78
2021/07/23 07:57:16;;;;;;;9.75;7.83;;;;;;;20.44;65.98;96732.62;1734713;81;20946;-78
2021/07/23 07:59:42;;;;;;;10.00;7.70;;;;;;;20.40;66.68;96733.58;1739252;81;20929;-78
2021/07/23 08:02:09;;;;;;;8.40;7.40;;;;;;;20.40;67.13;96732.27;1741962;81;20969;-78
2021/07/23 08:04:35;;;;;;;8.83;7.25;;;;;;;20.40;66.72;96734.90;1744473;81;21324;-78
2021/07/23 08:07:01;;;;;;;7.90;6.92;;;;;;;20.35;66.76;96734.30;1741933;81;20904;-78
2021/07/23 08:09:27;;;;;;;12.18;7.22;;;;;;;20.40;66.74;96736.22;1739580;81;20998;-78
2021/07/23 08:11:54;;;;;;;10.23;8.30;;;;;;;20.39;67.18;96735.94;1729981;81;20926;-77
2021/07/23 08:14:20;;;;;;;9.58;7.65;;;;;;;20.35;66.59;96732.17;1765655;79;21011;-79
2021/07/23 08:16:47;;;;;;;9.93;7.25;;;;;;;20.32;66.25;96736.58;1771250;79;21294;-78
2021/07/23 08:19:13;;;;;;;11.03;7.53;;;;;;;20.24;66.68;96719.29;1774973;79;20959;-78
2021/07/23 08:21:38;;;;;;;9.45;7.75;;;;;;;20.33;66.98;96736.86;1778654;79;20950;-78
2021/07/23 08:24:05;;;;;;;13.05;8.48;;;;;;;20.39;66.51;96734.10;1768604;79;21348;-78
2021/07/23 08:26:30;;;;;;;9.75;8.48;;;;;;;20.36;66.26;96731.94;1732359;81;20951;-78
2021/07/23 08:28:56;;;;;;;9.70;8.30;;;;;;;20.31;66.23;96736.30;1735989;81;20925;-78
2021/07/23 08:31:22;;;;;;;9.15;8.15;;;;;;;20.35;66.79;96736.93;1772479;79;21308;-78
2021/07/23 08:33:48;;;;;;;8.75;7.70;;;;;;;20.38;67.61;96732.50;1753346;81;21216;-78
2021/07/23 08:36:14;;;;;;;9.20;7.83;;;;;;;20.40;67.58;96726.98;1773394;79;20966;-77
2021/07/23 08:38:39;;;;;;;11.10;8.78;;;;;;;20.46;67.68;96727.38;1775406;79;21318;-77
2021/07/23 08:41:05;;;;;;;9.75;8.53;;;;;;;20.47;66.68;96731.63;1740292;81;20967;-78
2021/07/23 08:43:31;;;;;;;11.28;8.40;;;;;;;20.48;67.12;96732.42;1735903;81;20917;-77
2021/07/23 08:45:57;;;;;;;8.58;7.65;;;;;;;20.45;66.18;96727.62;1727126;81;21026;-77
2021/07/23 08:48:24;;;;;;;9.30;7.85;;;;;;;20.46;66.19;96725.26;1769118;80;20987;-77
2021/07/23 08:50:49;;;;;;;9.15;8.10;;;;;;;20.47;66.41;96725.02;1729703;81;21126;-77
2021/07/23 08:53:15;;;;;;;9.85;7.58;;;;;;;20.65;67.54;96725.34;1774483;79;20959;-78
2021/07/23 08:55:41;;;;;;;8.60;7.75;;;;;;;20.64;67.19;96728.50;1731661;81;21420;-78
2021/07/23 08:58:10;;;;;;;9.20;7.40;;;;;;;20.58;67.75;96723.37;1765557;79;20968;-78
2021/07/23 09:00:38;;;;;;;9.08;7.28;;;;;;;20.68;67.01;96719.09;1738529;81;20911;-78
2021/07/23 09:03:09;;;;;;;9.83;7.15;;;;;;;21.01;67.53;96724.14;1767094;79;21018;-78
2021/07/23 09:05:38;;;;;;;7.75;6.92;;;;;;;21.14;67.55;96723.80;1774304;80;20948;-77
2021/07/23 09:08:11;;;;;;;8.05;6.95;;;;;;;21.35;67.58;96716.25;1772390;80;20951;-77
2021/07/23 09:10:37;;;;;;;8.30;7.05;;;;;;;21.54;65.84;96717.06;1772925;80;20961;-78
2021/07/23 09:13:05;;;;;;;9.05;6.85;;;;;;;21.42;65.26;96715.55;1768262;80;21405;-79
2021/07/23 09:15:42;;;;;;;7.70;6.95;;;;;;;21.38;65.26;96715.23;1770315;79;20986;-78
2021/07/23 09:18:28;;;;;;;7.85;6.72;;;;;;;21.33;64.18;96721.78;1747459;80;20968;-78
2021/07/23 09:21:00;;;;;;;8.85;6.90;;;;;;;21.25;64.33;96719.52;1742728;80;20972;-77
2021/07/23 09:23:31;;;;;;;8.25;7.03;;;;;;;21.23;64.59;96713.65;1774773;80;20900;-78
2021/07/23 09:26:02;;;;;;;8.63;6.70;;;;;;;21.51;64.65;96712.27;1751966;80;21027;-78
2021/07/23 09:28:30;;;;;;;7.77;6.73;;;;;;;21.58;64.28;96718.69;1757091;79;20912;-77
2021/07/23 09:31:00;;;;;;;8.15;6.53;;;;;;;21.47;63.56;96719.05;1772276;79;21103;-77
2021/07/23 09:33:38;;;;;;;7.12;6.42;;;;;;;21.58;63.40;96710.23;1768701;79;21091;-77
2021/07/23 09:36:07;;;;;;;8.08;6.67;;;;;;;21.59;63.24;96713.67;1769504;79;20964;-77
2021/07/23 09:38:43;;;;;;;8.08;6.50;;;;;;;21.52;64.05;96715.18;1769924;79;20970;-77
2021/07/23 09:41:25;;;;;;;6.78;6.08;;;;;;;21.45;63.45;96712.41;1765893;79;20993;-77
2021/07/23 09:44:00;;;;;;;6.92;6.30;;;;;;;21.65;63.76;96709.28;1769218;79;21269;-77
2021/07/23 09:46:30;;;;;;;7.00;6.33;;;;;;;22.04;64.93;96710.04;1771223;80;20920;-77
2021/07/23 09:48:57;;;;;;;7.28;6.30;;;;;;;22.25;61.46;96704.48;1753227;80;21254;-77
2021/07/23 09:51:29;;;;;;;8.93;7.15;;;;;;;22.18;61.75;96704.69;1766993;79;20927;-77
2021/07/23 09:53:54;;;;;;;8.55;7.53;;;;;;;22.16;62.99;96702.81;1762447;79;20935;-77
2021/07/23 09:56:24;;;;;;;7.42;6.65;;;;;;;22.07;62.29;96702.95;1754294;79;21012;-77
2021/07/23 09:58:56;;;;;;;9.15;6.67;;;;;;;22.03;62.69;96705.27;1728143;79;20935;-77
2021/07/23 10:01:24;;;;;;;;;;;;;;;22.03;62.43;96700.50;1773117;79;20925;-77
2021/07/23 10:03:50;;;;;;;7.55;6.10;;;;;;;21.96;62.41;96699.34;1765334;79;20403;-77
2021/07/23 10:06:27;;;;;;;9.55;6.70;;;;;;;21.94;63.96;96695.35;1766261;79;20960;-77
2021/07/23 10:08:58;;;;;;;6.80;6.10;;;;;;;21.94;64.51;96693.50;1760256;79;20931;-77
2021/07/23 10:11:24;;;;;;;7.78;6.65;;;;;;;21.93;65.11;96693.75;1748326;80;20992;-78
2021/07/23 10:13:54;;;;;;;7.30;6.33;;;;;;;21.94;63.42;96690.86;1736122;80;21019;-77
2021/07/23 10:16:19;;;;;;;8.85;6.50;;;;;;;22.00;64.24;96698.36;1747730;80;21007;-77
2021/07/23 10:18:45;;;;;;;7.15;6.05;;;;;;;22.02;65.39;96696.26;1743700;80;20908;-78
2021/07/23 10:21:11;;;;;;;7.60;6.80;;;;;;;22.04;64.88;96690.99;1744889;80;21381;-77
2021/07/23 10:23:38;;;;;;;7.40;6.08;;;;;;;22.10;65.46;96681.29;1750475;80;20888;-77
2021/07/23 10:26:04;;;;;;;7.53;6.72;;;;;;;22.13;65.48;96688.23;1741100;80;20908;-77
2021/07/23 10:28:46;;;;;;;8.48;6.05;;;;;;;22.15;65.47;96683.49;1732410;80;20892;-77
2021/07/23 10:31:27;;;;;;;7.70;6.30;;;;;;;22.08;65.33;96680.22;1727525;80;21293;-77
2021/07/23 10:33:59;;;;;;;9.40;6.20;;;;;;;22.04;66.15;96677.77;1743363;80;20972;-77
2021/07/23 10:36:33;;;;;;;6.60;6.00;;;;;;;22.07;66.11;96679.94;1740541;80;20984;-77
2021/07/23 10:39:09;;;;;;;7.55;6.10;;;;;;;22.07;65.77;96682.59;1751417;80;21039;-77
2021/07/23 10:41:39;;;;;;;7.22;6.30;;;;;;;22.28;66.60;96676.19;1737039;80;20924;-78
2021/07/23 10:44:32;;;;;;;6.78;5.90;;;;;;;22.58;66.46;96673.86;1740137;80;21008;-77
2021/07/23 10:47:02;;;;;;;6.53;5.92;;;;;;;22.82;64.64;96673.55;1747155;80;20984;-78
2021/07/23 10:49:34;;;;;;;7.67;6.37;;;;;;;23.01;61.98;96664.20;1724176;82;20949;-78
2021/07/23 10:52:02;;;;;;;7.35;6.35;;;;;;;23.17;62.19;96656.63;1746989;80;20963;-77
2021/07/23 10:54:34;;;;;;;7.78;6.30;;;;;;;23.34;60.43;96659.92;1743710;80;20967;-78
2021/07/23 10:57:06;;;;;;;7.97;6.12;;;;;;;23.34;59.37;96652.50;1748567;80;20973;-78
2021/07/23 10:59:43;;;;;;;7.53;6.83;;;;;;;23.30;58.24;96656.72;1741455;80;21301;-77
2021/07/23 11:02:21;;;;;;;7.92;6.53;;;;;;;23.42;59.53;96656.51;1749014;80;20936;-78
2021/07/23 11:04:47;;;;;;;7.37;5.95;;;;;;;23.33;58.42;96651.70;1747711;81;21300;-78
2021/07/23 11:07:15;;;;;;;7.47;6.65;;;;;;;23.15;58.20;96653.44;1767608;79;20966;-78
2021/07/23 11:09:44;;;;;;;7.87;6.62;;;;;;;23.16;60.79;96655.03;1764229;80;20982;-78
2021/07/23 11:12:19;;;;;;;9.20;6.65;;;;;;;23.17;60.22;96650.00;1773136;79;20935;-77
2021/07/23 11:14:55;;;;;;;8.25;6.60;;;;;;;23.29;61.44;96651.15;1758124;80;20976;-78
2021/07/23 11:17:21;;;;;;;8.03;6.20;;;;;;;23.60;60.20;96640.22;1737658;81;20980;-77
2021/07/23 11:19:58;;;;;;;7.62;6.85;;;;;;;23.61;59.96;96641.28;1729724;80;20972;-77
2021/07/23 11:22:33;;;;;;;7.05;6.40;;;;;;;23.67;60.76;96642.09;1736887;81;20980;-77
2021/07/23 11:25:05;;;;;;;7.78;6.58;;;;;;;23.59;59.81;96647.87;1753050;80;20995;-79
2021/07/23 11:27:35;;;;;;;9.33;6.97;;;;;;;23.49;60.43;96645.16;1751700;80;21523;-81
2021/07/23 11:30:23;;;;;;;7.08;6.37;;;;;;;23.39;61.31;96640.59;1724335;81;20975;-78
2021/07/23 11:32:54;;;;;;;6.85;6.08;;;;;;;23.30;58.86;96638.96;1748358;81;20897;-79